createdAt,value
2023-01-19T00:00:56.591Z,3.88
2023-01-19T00:03:23.514Z,6.25
2023-01-19T00:05:50.366Z,5.18
2023-01-19T00:08:17.643Z,3.28
2023-01-19T00:10:51.288Z,6.95
2023-01-19T00:13:18.591Z,4.32
2023-01-19T00:15:45.433Z,3.65
2023-01-19T00:18:14.471Z,3.75
2023-01-19T00:20:41.531Z,4.05
2023-01-19T00:23:09.593Z,6.32
2023-01-19T00:25:42.555Z,2.17
2023-01-19T00:28:14.194Z,2.42
2023-01-19T00:30:42.183Z,4.75
2023-01-19T00:33:10.265Z,3.65
2023-01-19T00:35:37.149Z,5.32
2023-01-19T00:38:04.026Z,3.15
2023-01-19T00:40:30.878Z,2.67
2023-01-19T00:42:58.225Z,3.42
2023-01-19T00:45:25.457Z,3.63
2023-01-19T00:47:57.237Z,3.60
2023-01-19T00:50:25.921Z,4.90
2023-01-19T00:52:54.198Z,3.83
2023-01-19T00:55:21.732Z,4.72
2023-01-19T00:57:49.033Z,4.05
2023-01-19T01:00:19.846Z,1.60
2023-01-19T01:02:48.158Z,3.35
2023-01-19T01:05:15.430Z,2.00
2023-01-19T01:07:44.519Z,4.68
2023-01-19T01:10:14.790Z,1.98
2023-01-19T01:12:42.159Z,3.38
2023-01-19T01:15:23.414Z,2.72
2023-01-19T01:17:53.056Z,3.53
2023-01-19T01:20:27.114Z,3.60
2023-01-19T01:22:54.389Z,1.75
2023-01-19T01:25:23.621Z,2.97
2023-01-19T01:27:50.706Z,5.00
2023-01-19T01:30:17.683Z,2.95
2023-01-19T01:32:44.652Z,4.40
2023-01-19T01:35:12.591Z,5.03
2023-01-19T01:37:40.620Z,4.60
2023-01-19T01:40:08.031Z,6.70
2023-01-19T01:42:34.966Z,3.10
2023-01-19T01:45:22.229Z,2.78
2023-01-19T01:47:50.570Z,3.72
2023-01-19T01:50:26.780Z,1.92
2023-01-19T01:53:06.480Z,2.05
2023-01-19T01:55:38.372Z,2.65
2023-01-19T01:58:07.541Z,1.10
2023-01-19T02:00:54.419Z,4.22
2023-01-19T02:03:24.760Z,1.20
2023-01-19T02:05:53.700Z,1.63
2023-01-19T02:08:52.983Z,1.67
2023-01-19T02:11:38.747Z,0.80
2023-01-19T02:14:06.375Z,2.17
2023-01-19T02:16:35.045Z,1.85
2023-01-19T02:19:01.947Z,3.58
2023-01-19T02:21:43.070Z,1.77
2023-01-19T02:24:10.973Z,4.38
2023-01-19T02:26:44.397Z,2.15
2023-01-19T02:29:17.993Z,2.45
2023-01-19T02:31:48.194Z,1.02
2023-01-19T02:34:17.952Z,2.78
2023-01-19T02:36:52.787Z,3.60
2023-01-19T02:39:27.093Z,2.97
2023-01-19T02:41:59.311Z,2.25
2023-01-19T02:44:27.794Z,3.30
2023-01-19T02:46:57.341Z,2.58
2023-01-19T02:49:27.609Z,1.15
2023-01-19T02:51:54.737Z,1.65
2023-01-19T02:54:33.817Z,2.20
2023-01-19T02:57:32.304Z,4.20
2023-01-19T03:00:01.876Z,1.13
2023-01-19T03:02:44.204Z,3.05
2023-01-19T03:05:17.428Z,1.48
2023-01-19T03:08:25.152Z,2.83
2023-01-19T03:11:00.789Z,2.03
2023-01-19T03:13:52.113Z,2.85
2023-01-19T03:16:28.020Z,1.40
2023-01-19T03:18:58.360Z,2.72
2023-01-19T03:21:27.752Z,1.98
2023-01-19T03:24:00.464Z,3.90
2023-01-19T03:26:30.893Z,2.90
2023-01-19T03:29:02.682Z,1.40
2023-01-19T03:31:33.275Z,2.20
2023-01-19T03:34:06.803Z,1.02
2023-01-19T03:36:49.196Z,1.17
2023-01-19T03:39:23.018Z,2.53
2023-01-19T03:41:59.925Z,2.17
2023-01-19T03:44:29.183Z,1.77
2023-01-19T03:46:58.500Z,4.63
2023-01-19T03:49:25.957Z,4.00
2023-01-19T03:51:55.832Z,1.70
2023-01-19T03:54:23.086Z,1.25
2023-01-19T03:56:49.792Z,1.25
2023-01-19T03:59:17.619Z,3.30
2023-01-19T04:01:44.625Z,3.85
2023-01-19T04:04:11.683Z,1.70
2023-01-19T04:06:38.724Z,2.85
2023-01-19T04:09:06.054Z,1.60
2023-01-19T04:11:32.777Z,1.85
2023-01-19T04:13:59.714Z,2.72
2023-01-19T04:16:26.500Z,1.08
2023-01-19T04:18:53.543Z,1.17
2023-01-19T04:21:22.829Z,1.55
2023-01-19T04:23:50.378Z,0.55
2023-01-19T04:26:17.103Z,1.05
2023-01-19T04:28:43.786Z,0.73
2023-01-19T04:31:10.856Z,0.63
2023-01-19T04:33:37.733Z,0.65
2023-01-19T04:36:04.835Z,1.25
2023-01-19T04:38:31.830Z,1.13
2023-01-19T04:40:58.584Z,0.40
2023-01-19T04:43:25.413Z,1.85
2023-01-19T04:45:52.316Z,0.95
2023-01-19T04:48:19.689Z,0.98
2023-01-19T04:50:47.338Z,3.10
2023-01-19T04:53:14.599Z,4.47
2023-01-19T04:55:41.337Z,6.13
2023-01-19T04:58:08.416Z,3.00
2023-01-19T05:00:35.623Z,4.35
2023-01-19T05:03:02.807Z,1.50
2023-01-19T05:05:29.947Z,4.70
2023-01-19T05:07:56.841Z,1.95
2023-01-19T05:10:23.978Z,1.15
2023-01-19T05:12:51.320Z,0.70
2023-01-19T05:15:18.100Z,0.60
2023-01-19T05:17:45.218Z,1.15
2023-01-19T05:20:15.685Z,1.35
2023-01-19T05:22:43.414Z,0.40
2023-01-19T05:25:10.227Z,0.55
2023-01-19T05:27:38.745Z,0.95
2023-01-19T05:30:06.537Z,2.70
2023-01-19T05:32:33.370Z,1.15
2023-01-19T05:35:00.200Z,0.60
2023-01-19T05:37:27.050Z,0.82
2023-01-19T05:39:54.219Z,4.18
2023-01-19T05:42:21.273Z,4.00
2023-01-19T05:44:48.037Z,3.10
2023-01-19T05:47:15.029Z,2.72
2023-01-19T05:49:41.831Z,3.58
2023-01-19T05:52:08.667Z,3.58
2023-01-19T05:54:35.617Z,2.63
2023-01-19T05:57:03.131Z,3.60
2023-01-19T05:59:29.913Z,1.95
2023-01-19T06:01:57.243Z,1.67
2023-01-19T06:04:24.152Z,2.35
2023-01-19T06:06:51.607Z,2.50
2023-01-19T06:09:18.652Z,2.55
2023-01-19T06:11:46.420Z,3.63
2023-01-19T06:14:13.704Z,2.90
2023-01-19T06:16:40.904Z,3.28
2023-01-19T06:19:07.690Z,3.17
2023-01-19T06:21:34.540Z,1.38
2023-01-19T06:24:01.397Z,2.58
2023-01-19T06:26:28.256Z,2.78
2023-01-19T06:28:55.395Z,3.00
2023-01-19T06:31:22.550Z,2.00
2023-01-19T06:33:49.948Z,1.88
2023-01-19T06:36:16.727Z,1.42
2023-01-19T06:38:44.003Z,2.63
2023-01-19T06:41:12.463Z,1.83
2023-01-19T06:43:39.296Z,2.45
2023-01-19T06:46:06.240Z,1.98
2023-01-19T06:48:33.083Z,3.63
2023-01-19T06:51:00.038Z,2.33
2023-01-19T06:53:28.442Z,3.50
2023-01-19T06:55:59.763Z,2.40
2023-01-19T06:58:28.375Z,3.33
2023-01-19T07:00:56.335Z,3.30
2023-01-19T07:03:23.827Z,4.00
2023-01-19T07:05:53.753Z,2.60
2023-01-19T07:08:20.887Z,4.30
2023-01-19T07:11:25.674Z,4.90
2023-01-19T07:13:35.923Z,5.38
2023-01-19T07:16:11.852Z,7.82
2023-01-19T07:18:39.894Z,0.98
2023-01-19T07:21:07.318Z,1.55
2023-01-19T07:23:35.089Z,2.10
2023-01-19T07:26:02.010Z,1.90
2023-01-19T07:28:29.616Z,3.10
2023-01-19T07:30:57.068Z,1.67
2023-01-19T07:33:25.077Z,3.75
2023-01-19T07:35:52.628Z,3.10
2023-01-19T07:38:20.395Z,2.20
2023-01-19T07:40:47.307Z,2.13
2023-01-19T07:43:15.028Z,3.28
2023-01-19T07:45:43.190Z,1.63
2023-01-19T07:48:10.027Z,4.00
2023-01-19T07:50:36.826Z,4.45
2023-01-19T07:53:08.603Z,9.32
2023-01-19T07:55:35.943Z,8.68
2023-01-19T07:58:06.643Z,3.10
2023-01-19T08:00:35.367Z,6.07
2023-01-19T08:03:03.750Z,3.42
2023-01-19T08:05:31.667Z,3.63
2023-01-19T08:07:59.021Z,4.38
2023-01-19T08:10:27.412Z,4.55
2023-01-19T08:12:55.263Z,4.70
2023-01-19T08:15:24.208Z,2.42
2023-01-19T08:17:59.050Z,1.40
2023-01-19T08:20:27.123Z,3.60
2023-01-19T08:23:01.623Z,4.97
2023-01-19T08:25:37.408Z,4.95
2023-01-19T08:28:06.493Z,2.28
2023-01-19T08:30:33.521Z,4.45
2023-01-19T08:33:08.380Z,3.28
2023-01-19T08:35:43.329Z,2.33
2023-01-19T08:38:11.148Z,4.00
2023-01-19T08:40:40.431Z,2.80
2023-01-19T08:43:09.963Z,3.55
2023-01-19T08:45:48.185Z,4.75
2023-01-19T08:48:17.295Z,4.40
2023-01-19T08:50:46.228Z,1.70
2023-01-19T08:53:13.633Z,3.22
2023-01-19T08:55:40.851Z,4.15
2023-01-19T08:58:08.956Z,5.15
2023-01-19T09:00:41.109Z,5.53
2023-01-19T09:03:11.475Z,5.00
2023-01-19T09:05:38.874Z,3.97
2023-01-19T09:08:09.411Z,6.63
2023-01-19T09:10:38.115Z,5.32
2023-01-19T09:13:08.353Z,6.38
2023-01-19T09:15:37.697Z,5.55
2023-01-19T09:18:07.259Z,3.45
2023-01-19T09:20:36.179Z,2.58
2023-01-19T09:23:03.267Z,4.57
2023-01-19T09:25:30.105Z,4.32
2023-01-19T09:27:56.928Z,7.53
2023-01-19T09:30:23.679Z,24.42
2023-01-19T09:32:50.609Z,11.25
2023-01-19T09:35:17.516Z,5.45
2023-01-19T09:37:47.926Z,6.43
2023-01-19T09:40:15.918Z,7.97
2023-01-19T09:42:47.349Z,4.35
2023-01-19T09:45:36.128Z,5.35
2023-01-19T09:48:13.374Z,2.20
2023-01-19T09:50:46.851Z,10.93
2023-01-19T09:54:01.483Z,9.15
2023-01-19T09:56:30.223Z,11.75
2023-01-19T09:58:58.501Z,5.28
2023-01-19T10:01:46.593Z,4.53
2023-01-19T10:04:25.508Z,5.28
2023-01-19T10:07:04.018Z,6.93
2023-01-19T10:09:47.627Z,4.55
2023-01-19T10:12:32.788Z,4.50
2023-01-19T10:15:04.213Z,3.25
2023-01-19T10:17:44.377Z,4.45
2023-01-19T10:20:18.062Z,3.85
2023-01-19T10:22:48.794Z,4.65
2023-01-19T10:25:20.509Z,4.82
2023-01-19T10:27:47.820Z,6.00
2023-01-19T10:30:24.524Z,7.45
2023-01-19T10:32:51.791Z,6.97
2023-01-19T10:35:27.260Z,6.82
2023-01-19T10:37:58.701Z,5.80
2023-01-19T10:40:47.798Z,6.20
2023-01-19T10:43:46.492Z,8.07
2023-01-19T10:46:37.348Z,9.13
2023-01-19T10:49:05.688Z,3.63
2023-01-19T10:51:32.757Z,5.60
2023-01-19T10:54:02.379Z,7.15
2023-01-19T10:56:35.280Z,4.22
2023-01-19T10:59:05.895Z,5.43
2023-01-19T11:01:36.983Z,5.53
2023-01-19T11:04:27.952Z,7.38
2023-01-19T11:07:14.016Z,8.68
2023-01-19T11:09:41.018Z,7.68
2023-01-19T11:12:16.846Z,6.95
2023-01-19T11:14:43.781Z,5.10
2023-01-19T11:17:27.919Z,4.50
2023-01-19T11:20:03.023Z,6.45
2023-01-19T11:22:33.974Z,4.05
2023-01-19T11:25:03.077Z,4.97
2023-01-19T11:27:32.077Z,3.95
2023-01-19T11:30:16.983Z,4.95
2023-01-19T11:32:43.798Z,4.45
2023-01-19T11:35:32.517Z,3.45
2023-01-19T11:38:19.570Z,6.60
2023-01-19T11:40:53.292Z,6.43
2023-01-19T11:43:23.310Z,6.35
2023-01-19T11:45:50.638Z,5.45
2023-01-19T11:48:29.247Z,5.95
2023-01-19T11:51:00.546Z,3.65
2023-01-19T11:53:30.823Z,6.72
2023-01-19T11:56:06.805Z,7.72
2023-01-19T11:58:39.178Z,5.30
2023-01-19T12:01:31.436Z,7.28
2023-01-19T12:03:58.168Z,3.35
2023-01-19T12:06:34.241Z,3.53
2023-01-19T12:09:10.566Z,3.33
2023-01-19T12:12:08.935Z,2.40
2023-01-19T12:14:43.768Z,1.63
2023-01-19T12:17:24.959Z,1.67
2023-01-19T12:20:28.155Z,2.05
2023-01-19T12:23:17.454Z,3.13
2023-01-19T12:25:54.950Z,5.97
2023-01-19T12:28:31.766Z,8.38
2023-01-19T12:31:01.137Z,5.50
2023-01-19T12:33:38.502Z,4.10
2023-01-19T12:36:35.607Z,3.00
2023-01-19T12:39:04.459Z,2.20
2023-01-19T12:41:38.932Z,2.85
2023-01-19T12:44:12.001Z,1.60
2023-01-19T12:46:43.512Z,4.40
2023-01-19T12:49:16.295Z,3.03
2023-01-19T12:51:43.774Z,4.20
2023-01-19T12:54:23.490Z,3.63
2023-01-19T12:56:58.619Z,7.38
2023-01-19T12:59:27.444Z,4.05
2023-01-19T13:02:22.255Z,7.95
2023-01-19T13:05:32.507Z,3.83
2023-01-19T13:08:02.412Z,3.33
2023-01-19T13:11:03.057Z,1.88
2023-01-19T13:13:42.297Z,3.85
2023-01-19T13:16:18.290Z,5.20
2023-01-19T13:18:45.126Z,8.02
2023-01-19T13:21:12.623Z,7.90
2023-01-19T13:23:51.429Z,4.75
2023-01-19T13:26:21.966Z,9.32
2023-01-19T13:28:55.700Z,5.40
2023-01-19T13:31:24.431Z,6.43
2023-01-19T13:33:55.036Z,5.80
2023-01-19T13:36:38.480Z,6.93
2023-01-19T13:39:18.697Z,8.48
2023-01-19T13:41:47.316Z,6.10
2023-01-19T13:44:30.339Z,7.22
2023-01-19T13:46:59.400Z,9.65
2023-01-19T13:49:36.423Z,9.75
2023-01-19T13:52:06.283Z,7.82
2023-01-19T13:54:33.085Z,5.18
2023-01-19T13:56:59.803Z,4.32
2023-01-19T13:59:26.594Z,3.65
2023-01-19T14:01:54.310Z,2.97
2023-01-19T14:04:30.791Z,4.07
2023-01-19T14:07:01.623Z,3.85
2023-01-19T14:09:28.940Z,4.15
2023-01-19T14:12:05.164Z,4.80
2023-01-19T14:14:32.693Z,3.20
2023-01-19T14:16:59.699Z,2.63
2023-01-19T14:19:26.552Z,2.70
2023-01-19T14:22:04.331Z,4.38
2023-01-19T14:24:33.289Z,4.22
2023-01-19T14:27:10.010Z,3.00
2023-01-19T14:29:40.555Z,5.57
2023-01-19T14:32:10.062Z,3.40
2023-01-19T14:34:42.851Z,4.35
2023-01-19T14:37:37.471Z,2.83
2023-01-19T14:40:17.517Z,4.07
2023-01-19T14:42:50.181Z,20.80
2023-01-19T14:45:21.371Z,8.70
2023-01-19T14:48:19.291Z,9.30
2023-01-19T14:51:02.112Z,10.20
2023-01-19T14:53:36.699Z,5.47
2023-01-19T14:56:05.980Z,3.42
2023-01-19T14:58:34.917Z,3.95
2023-01-19T15:01:02.846Z,5.72
2023-01-19T15:03:46.187Z,4.45
2023-01-19T15:06:20.125Z,6.10
2023-01-19T15:08:47.378Z,8.90
2023-01-19T15:11:31.908Z,6.50
2023-01-19T15:13:59.303Z,3.95
2023-01-19T15:16:29.143Z,4.65
2023-01-19T15:18:56.140Z,2.90
2023-01-19T15:21:23.816Z,3.05
2023-01-19T15:23:50.797Z,6.13
2023-01-19T15:26:23.054Z,5.05
2023-01-19T15:28:50.603Z,3.33
2023-01-19T15:31:20.727Z,3.97
2023-01-19T15:33:47.666Z,3.58
2023-01-19T15:36:18.319Z,5.43
2023-01-19T15:38:46.046Z,6.50
2023-01-19T15:41:20.776Z,7.60
2023-01-19T15:43:49.369Z,5.00
2023-01-19T15:46:18.784Z,5.75
2023-01-19T15:48:45.539Z,7.18
2023-01-19T15:51:17.103Z,7.30
2023-01-19T15:53:45.207Z,6.75
2023-01-19T15:56:19.671Z,6.45
2023-01-19T15:58:46.877Z,8.13
2023-01-19T16:01:16.201Z,7.72
2023-01-19T16:03:43.432Z,7.95
2023-01-19T16:06:11.174Z,4.82
2023-01-19T16:08:38.512Z,7.38
2023-01-19T16:11:15.320Z,7.95
2023-01-19T16:13:46.243Z,10.15
2023-01-19T16:16:20.985Z,12.55
2023-01-19T16:18:48.067Z,13.38
2023-01-19T16:21:14.893Z,15.90
2023-01-19T16:23:42.047Z,13.80
2023-01-19T16:26:22.993Z,15.95
2023-01-19T16:28:49.835Z,12.88
2023-01-19T16:31:16.738Z,14.77
2023-01-19T16:33:45.346Z,12.85
2023-01-19T16:36:42.618Z,15.30
2023-01-19T16:39:12.907Z,9.95
2023-01-19T16:41:40.242Z,13.38
2023-01-19T16:44:07.363Z,13.40
2023-01-19T16:46:36.853Z,16.35
2023-01-19T16:49:06.193Z,12.52
2023-01-19T16:51:33.675Z,12.05
2023-01-19T16:54:00.505Z,11.95
2023-01-19T16:56:27.391Z,8.90
2023-01-19T16:58:58.435Z,10.45
2023-01-19T17:01:27.386Z,9.50
2023-01-19T17:03:55.485Z,20.05
2023-01-19T17:06:23.614Z,17.98
2023-01-19T17:08:52.031Z,12.60
2023-01-19T17:11:30.634Z,16.55
2023-01-19T17:14:06.200Z,16.00
2023-01-19T17:16:34.283Z,11.85
2023-01-19T17:19:02.982Z,26.67
2023-01-19T17:21:29.802Z,18.00
2023-01-19T17:23:57.959Z,23.08
2023-01-19T17:26:25.973Z,21.95
2023-01-19T17:28:52.719Z,16.10
2023-01-19T17:31:22.024Z,15.20
2023-01-19T17:33:50.527Z,14.02
2023-01-19T17:36:22.874Z,15.32
2023-01-19T17:38:50.292Z,11.95
2023-01-19T17:41:19.576Z,13.95
2023-01-19T17:43:47.325Z,20.23
2023-01-19T17:46:14.144Z,42.15
2023-01-19T17:48:41.076Z,50.17
2023-01-19T17:51:11.373Z,38.55
2023-01-19T17:53:39.978Z,38.80
2023-01-19T17:56:12.364Z,36.58
2023-01-19T17:58:39.822Z,45.78
2023-01-19T18:01:22.113Z,53.45
2023-01-19T18:03:49.117Z,48.03
2023-01-19T18:06:16.719Z,40.63
2023-01-19T18:08:46.280Z,22.20
2023-01-19T18:11:14.898Z,18.05
2023-01-19T18:13:46.128Z,21.38
2023-01-19T18:16:15.943Z,23.08
2023-01-19T18:18:44.260Z,26.30
2023-01-19T18:21:14.300Z,23.15
2023-01-19T18:23:46.012Z,20.38
2023-01-19T18:26:16.201Z,19.50
2023-01-19T18:28:43.098Z,17.55
2023-01-19T18:31:12.128Z,23.52
2023-01-19T18:33:39.147Z,21.58
2023-01-19T18:36:06.472Z,28.33
2023-01-19T18:38:33.672Z,26.40
2023-01-19T18:41:10.257Z,27.60
2023-01-19T18:43:37.932Z,26.13
2023-01-19T18:46:04.982Z,48.80
2023-01-19T18:48:31.965Z,54.30
2023-01-19T18:51:03.339Z,49.55
2023-01-19T18:53:32.245Z,43.75
2023-01-19T18:56:01.924Z,35.40
2023-01-19T18:58:30.050Z,28.90
2023-01-19T19:00:57.421Z,28.48
2023-01-19T19:03:24.414Z,37.72
2023-01-19T19:05:53.845Z,37.17
2023-01-19T19:08:20.917Z,36.85
2023-01-19T19:10:47.904Z,48.63
2023-01-19T19:13:16.799Z,47.85
2023-01-19T19:15:44.470Z,45.40
2023-01-19T19:18:13.964Z,51.38
2023-01-19T19:20:43.251Z,50.25
2023-01-19T19:23:13.011Z,48.72
2023-01-19T19:25:39.891Z,37.22
2023-01-19T19:28:07.083Z,33.17
2023-01-19T19:30:35.700Z,33.58
2023-01-19T19:33:02.604Z,28.00
2023-01-19T19:35:29.447Z,30.30
2023-01-19T19:37:57.827Z,28.95
2023-01-19T19:40:26.631Z,27.90
2023-01-19T19:42:53.591Z,32.80
2023-01-19T19:45:22.285Z,29.30
2023-01-19T19:48:00.704Z,34.78
2023-01-19T19:50:28.091Z,39.75
2023-01-19T19:52:54.914Z,40.70
2023-01-19T19:55:21.821Z,36.40
2023-01-19T19:57:48.673Z,22.13
2023-01-19T20:00:16.216Z,23.30
2023-01-19T20:02:43.040Z,18.08
2023-01-19T20:05:10.016Z,18.27
2023-01-19T20:07:39.133Z,16.02
2023-01-19T20:10:06.423Z,21.27
2023-01-19T20:12:33.531Z,23.35
2023-01-19T20:15:00.440Z,54.92
2023-01-19T20:17:27.285Z,41.00
2023-01-19T20:19:54.223Z,46.15
2023-01-19T20:22:21.106Z,33.33
2023-01-19T20:24:48.157Z,27.58
2023-01-19T20:27:15.396Z,24.48
2023-01-19T20:29:43.204Z,22.40
2023-01-19T20:32:32.810Z,20.33
2023-01-19T20:35:00.259Z,22.75
2023-01-19T20:37:27.369Z,21.83
2023-01-19T20:39:54.499Z,22.55
2023-01-19T20:42:21.453Z,23.73
2023-01-19T20:44:49.777Z,17.90
2023-01-19T20:47:16.837Z,19.60
2023-01-19T20:49:44.205Z,22.40
2023-01-19T20:52:11.249Z,24.42
2023-01-19T20:54:39.936Z,36.25
2023-01-19T20:57:06.824Z,41.67
2023-01-19T20:59:36.952Z,42.65
2023-01-19T21:02:06.459Z,32.17
2023-01-19T21:04:33.650Z,34.30
2023-01-19T21:07:00.485Z,36.03
2023-01-19T21:09:27.258Z,33.38
2023-01-19T21:11:55.917Z,33.55
2023-01-19T21:14:24.392Z,32.60
2023-01-19T21:16:51.419Z,38.28
2023-01-19T21:19:18.447Z,41.55
2023-01-19T21:21:45.306Z,38.20
2023-01-19T21:24:12.162Z,30.15
2023-01-19T21:26:39.262Z,33.22
2023-01-19T21:29:06.056Z,30.42
2023-01-19T21:31:32.938Z,30.48
2023-01-19T21:33:59.875Z,35.63
2023-01-19T21:36:27.006Z,25.77
2023-01-19T21:39:00.375Z,25.73
2023-01-19T21:41:28.431Z,24.52
2023-01-19T21:43:55.319Z,25.63
2023-01-19T21:46:29.634Z,17.80
2023-01-19T21:49:01.780Z,23.48
2023-01-19T21:51:30.305Z,15.70
2023-01-19T21:53:59.820Z,17.13
2023-01-19T21:56:44.902Z,13.80
2023-01-19T21:59:16.068Z,9.50
2023-01-19T22:01:44.969Z,9.82
2023-01-19T22:04:12.595Z,9.05
2023-01-19T22:06:39.753Z,10.60
2023-01-19T22:09:07.527Z,19.95
2023-01-19T22:11:34.449Z,15.70
2023-01-19T22:14:01.317Z,10.40
2023-01-19T22:16:29.572Z,10.43
2023-01-19T22:18:59.545Z,5.38
2023-01-19T22:21:30.432Z,10.05
2023-01-19T22:23:59.298Z,6.15
2023-01-19T22:26:27.767Z,8.30
2023-01-19T22:28:56.606Z,10.20
2023-01-19T22:31:25.284Z,8.82
2023-01-19T22:33:53.138Z,10.55
2023-01-19T22:36:30.548Z,11.75
2023-01-19T22:38:59.721Z,7.78
2023-01-19T22:41:42.022Z,6.07
2023-01-19T22:44:13.122Z,8.20
2023-01-19T22:46:40.082Z,4.65
2023-01-19T22:49:08.273Z,6.20
2023-01-19T22:51:35.918Z,10.05
2023-01-19T22:54:03.881Z,5.63
2023-01-19T22:56:32.758Z,8.45
2023-01-19T22:59:00.302Z,9.40
2023-01-19T23:01:31.541Z,11.70
2023-01-19T23:06:30.629Z,4.65
2023-01-19T23:09:00.087Z,5.22
2023-01-19T23:11:29.882Z,4.75
2023-01-19T23:13:58.156Z,7.13
2023-01-19T23:16:25.148Z,10.07
2023-01-19T23:18:56.911Z,8.25
2023-01-19T23:21:26.426Z,10.30
2023-01-19T23:23:56.653Z,9.60
2023-01-19T23:26:24.265Z,11.20
2023-01-19T23:28:56.533Z,11.55
2023-01-19T23:31:23.536Z,10.65
2023-01-19T23:33:52.100Z,9.40
2023-01-19T23:36:20.451Z,13.95
2023-01-19T23:38:55.539Z,12.23
2023-01-19T23:41:23.610Z,10.73
2023-01-19T23:43:50.794Z,12.48
2023-01-19T23:46:19.106Z,9.95
2023-01-19T23:48:46.827Z,13.68
2023-01-19T23:51:16.603Z,11.40
2023-01-19T23:53:43.620Z,13.00
2023-01-19T23:56:33.544Z,11.02
